Time;durP1;ratioP1;P1;durP2;ratioP2;P2;SDS_P1;SDS_P2;PMS_P1;PMS_P2;Temp;Humidity;BMP_temperature;BMP_pressure;BME280_temperature;BME280_humidity;BME280_pressure;Samples;Min_cycle;Max_cycle;Signal;HPM_P1;HPM_P2
2022/03/30 00:01:22;;;;;;;7.32;1.60;;;;;;;-2.56;100.00;100807.28;4797231;29;20118;-78
2022/03/30 00:03:48;;;;;;;6.75;1.70;;;;;;;-2.57;100.00;100808.25;4815154;29;20035;-78
2022/03/30 00:06:13;;;;;;;5.55;1.60;;;;;;;-2.63;100.00;100800.81;4803488;29;20031;-78
2022/03/30 00:08:38;;;;;;;3.83;1.50;;;;;;;-2.52;100.00;100816.66;4805717;29;20462;-77
2022/03/30 00:11:04;;;;;;;3.72;1.65;;;;;;;-2.50;100.00;100820.00;4803814;29;20402;-78
2022/03/30 00:13:29;;;;;;;3.45;1.35;;;;;;;-2.53;100.00;100820.25;4790693;29;20038;-77
2022/03/30 00:15:55;;;;;;;5.70;1.73;;;;;;;-2.69;100.00;100793.34;4759898;29;20061;-78
2022/03/30 00:18:20;;;;;;;3.72;1.90;;;;;;;-2.60;100.00;100827.75;4789249;29;20030;-78
2022/03/30 00:20:46;;;;;;;3.50;1.30;;;;;;;-2.88;100.00;100789.47;4819140;29;20112;-78
2022/03/30 00:23:11;;;;;;;4.20;1.70;;;;;;;-2.72;100.00;100827.81;4810811;29;20517;-78
2022/03/30 00:25:37;;;;;;;3.47;1.00;;;;;;;-2.87;100.00;100817.47;4799747;29;20142;-78
2022/03/30 00:28:03;;;;;;;3.05;1.30;;;;;;;-2.80;100.00;100827.56;4794202;29;20339;-77
2022/03/30 00:30:30;;;;;;;3.83;1.40;;;;;;;-3.02;100.00;100797.53;4778368;29;20137;-77
2022/03/30 00:32:55;;;;;;;3.20;1.00;;;;;;;-2.85;100.00;100826.09;4793697;29;20027;-77
2022/03/30 00:35:21;;;;;;;4.15;1.40;;;;;;;-3.13;100.00;100781.69;4809801;29;20054;-77
2022/03/30 00:37:46;;;;;;;2.55;0.98;;;;;;;-2.86;100.00;100819.16;4825487;29;20434;-77
2022/03/30 00:40:15;;;;;;;3.13;1.05;;;;;;;-2.84;100.00;100824.31;4811136;29;20469;-78
2022/03/30 00:42:41;;;;;;;4.00;1.20;;;;;;;-2.83;100.00;100829.44;4801328;29;20042;-78
2022/03/30 00:45:13;;;;;;;5.95;1.23;;;;;;;-2.94;100.00;100816.25;4793216;29;20593;-77
2022/03/30 00:47:39;;;;;;;5.93;1.20;;;;;;;-2.86;100.00;100831.47;4808003;29;20043;-77
2022/03/30 00:50:06;;;;;;;4.53;1.10;;;;;;;-2.87;100.00;100832.44;4800230;29;20042;-78
2022/03/30 00:52:32;;;;;;;8.38;1.60;;;;;;;-2.95;100.00;100819.81;4792255;29;20054;-77
2022/03/30 00:54:58;;;;;;;8.15;1.35;;;;;;;-3.00;100.00;100821.13;4808629;29;20450;-77
2022/03/30 00:57:24;;;;;;;3.03;1.10;;;;;;;-3.35;100.00;100772.69;4809429;29;20053;-77
2022/03/30 00:59:50;;;;;;;4.97;1.10;;;;;;;-3.00;100.00;100834.28;4807808;29;20046;-77
2022/03/30 01:02:17;;;;;;;2.70;1.00;;;;;;;-3.15;100.00;100813.34;4811061;29;20042;-77
2022/03/30 01:04:46;;;;;;;2.90;1.08;;;;;;;-3.16;100.00;100803.78;4795635;29;20117;-77
2022/03/30 01:07:13;;;;;;;3.78;1.35;;;;;;;-3.02;100.00;100839.63;4810176;29;20087;-78
2022/03/30 01:09:38;;;;;;;7.53;1.45;;;;;;;-3.03;100.00;100834.50;4811973;29;20050;-78
2022/03/30 01:12:04;;;;;;;5.07;1.00;;;;;;;-3.02;100.00;100839.63;4802968;29;20038;-77
2022/03/30 01:14:31;;;;;;;6.07;1.23;;;;;;;-3.01;100.00;100843.09;4797751;29;20062;-78
2022/03/30 01:16:56;;;;;;;2.58;0.90;;;;;;;-3.00;100.00;100844.81;4779859;29;20134;-77
2022/03/30 01:19:29;;;;;;;4.88;1.10;;;;;;;-2.99;100.00;100839.41;4797406;29;20438;-78
2022/03/30 01:21:54;;;;;;;3.25;1.13;;;;;;;-2.98;100.00;100843.75;4808760;29;20370;-77
2022/03/30 01:24:19;;;;;;;3.13;1.10;;;;;;;-2.96;100.00;100839.19;4808990;29;20035;-77
2022/03/30 01:26:45;;;;;;;5.88;1.35;;;;;;;-2.95;100.00;100845.31;4794953;29;20041;-78
2022/03/30 01:34:40;;;;;;;4.03;1.05;;;;;;;-2.93;100.00;100844.25;4815810;29;20092;-77
2022/03/30 01:37:07;;;;;;;2.88;1.23;;;;;;;-2.94;100.00;100841.75;4808579;29;20481;-77
2022/03/30 01:39:32;;;;;;;6.63;1.20;;;;;;;-2.96;100.00;100826.03;4808646;29;20073;-77
2022/03/30 01:41:58;;;;;;;4.90;1.10;;;;;;;-2.87;100.00;100843.81;4809368;29;20070;-77
2022/03/30 01:44:24;;;;;;;5.38;1.30;;;;;;;-2.92;100.00;100830.13;4799712;29;20042;-77
2022/03/30 01:46:50;;;;;;;2.67;1.08;;;;;;;-2.88;100.00;100839.50;4809069;29;20105;-78
2022/03/30 01:49:21;;;;;;;4.22;1.00;;;;;;;-2.88;100.00;100839.50;4787550;29;20059;-77
2022/03/30 01:51:48;;;;;;;4.25;1.30;;;;;;;-2.95;100.00;100827.72;4764536;29;20511;-77
2022/03/30 01:54:14;;;;;;;3.13;1.10;;;;;;;-2.95;100.00;100827.72;4807751;29;20069;-78
2022/03/30 01:56:40;;;;;;;3.33;1.00;;;;;;;-3.01;100.00;100809.75;4809818;29;20035;-77
2022/03/30 01:59:06;;;;;;;6.28;1.25;;;;;;;-2.90;100.00;100833.50;4809951;29;20057;-77
2022/03/30 02:01:32;;;;;;;6.18;1.50;;;;;;;-3.01;100.00;100822.91;4812372;29;20059;-77
2022/03/30 02:03:57;;;;;;;4.40;1.27;;;;;;;-3.00;100.00;100832.47;4827332;29;20082;-77
2022/03/30 02:06:24;;;;;;;2.85;1.10;;;;;;;-2.96;100.00;100833.09;4779739;29;20035;-78
2022/03/30 02:08:49;;;;;;;4.43;1.08;;;;;;;-2.94;100.00;100825.94;4793625;29;20055;-77
2022/03/30 02:11:15;;;;;;;5.70;1.27;;;;;;;-2.93;100.00;100831.09;4820946;29;20558;-77
2022/03/30 02:13:40;;;;;;;2.67;1.13;;;;;;;-2.91;100.00;100829.19;4826065;29;20121;-77
2022/03/30 02:16:06;;;;;;;5.00;1.30;;;;;;;-2.94;100.00;100831.22;4797050;29;20039;-77
2022/03/30 02:18:31;;;;;;;3.38;0.93;;;;;;;-2.92;100.00;100830.13;4809259;29;20129;-77
2022/03/30 02:20:57;;;;;;;2.05;0.70;;;;;;;-2.95;100.00;100819.81;4795281;29;20042;-77
2022/03/30 02:23:22;;;;;;;6.57;1.10;;;;;;;-2.91;100.00;100825.72;4777578;29;20062;-77
2022/03/30 02:25:48;;;;;;;3.22;0.85;;;;;;;-2.91;100.00;100826.56;4807617;29;20062;-77
2022/03/30 02:28:13;;;;;;;4.70;1.10;;;;;;;-2.97;100.00;100823.53;4807239;29;20031;-77
2022/03/30 02:30:39;;;;;;;2.58;0.70;;;;;;;-2.96;100.00;100812.88;4788787;29;20466;-77
2022/03/30 02:33:04;;;;;;;2.90;1.10;;;;;;;-2.94;100.00;100839.94;4806942;29;20037;-77
2022/03/30 02:35:31;;;;;;;2.72;1.00;;;;;;;-2.96;100.00;100839.19;4806147;29;20027;-77
2022/03/30 02:37:58;;;;;;;4.20;1.20;;;;;;;-3.00;100.00;100837.75;4777117;29;20484;-78
2022/03/30 02:40:24;;;;;;;3.08;1.10;;;;;;;-3.16;100.00;100816.13;4777211;29;20041;-77
2022/03/30 02:42:49;;;;;;;2.53;1.00;;;;;;;-3.07;100.00;100837.34;4806891;29;20035;-77
2022/03/30 02:45:14;;;;;;;2.33;0.95;;;;;;;-3.08;100.00;100829.53;4809100;29;20045;-77
2022/03/30 02:50:24;;;;;;;2.35;0.95;;;;;;;-3.22;100.00;100813.91;4822297;29;20119;-77
2022/03/30 02:52:49;;;;;;;4.22;1.02;;;;;;;-3.15;100.00;100837.03;4809160;29;20157;-77
2022/03/30 02:55:15;;;;;;;3.60;1.10;;;;;;;-3.09;100.00;100833.97;4803726;29;20113;-77
2022/03/30 02:57:40;;;;;;;3.75;1.00;;;;;;;-3.35;100.00;100796.38;4776411;29;20045;-77
2022/03/30 03:00:07;;;;;;;4.72;0.85;;;;;;;-3.09;100.00;100849.75;4806181;29;20039;-77
2022/03/30 03:02:34;;;;;;;5.35;1.00;;;;;;;-3.23;100.00;100826.25;4789599;29;20382;-77
2022/03/30 03:04:59;;;;;;;3.67;0.90;;;;;;;-3.19;100.00;100824.22;4790976;29;20043;-77
2022/03/30 03:07:25;;;;;;;3.70;1.00;;;;;;;-3.19;100.00;100832.13;4789072;29;20054;-77
2022/03/30 03:09:50;;;;;;;3.00;0.90;;;;;;;-3.18;100.00;100846.94;4807683;29;20045;-77
2022/03/30 03:12:16;;;;;;;6.30;1.20;;;;;;;-3.15;100.00;100844.94;4806320;29;20398;-77
2022/03/30 03:14:41;;;;;;;2.30;0.80;;;;;;;-3.22;100.00;100835.81;4806532;29;20046;-78
2022/03/30 03:17:07;;;;;;;2.47;0.90;;;;;;;-3.32;100.00;100825.09;4794867;29;20374;-77
2022/03/30 03:19:32;;;;;;;1.27;0.75;;;;;;;-3.19;100.00;100848.75;4796405;29;20087;-77
2022/03/30 03:21:58;;;;;;;3.78;1.20;;;;;;;-3.21;100.00;100841.91;4805049;29;20038;-77
2022/03/30 03:24:23;;;;;;;5.13;0.80;;;;;;;-3.23;100.00;100851.72;4790659;29;20497;-77
2022/03/30 03:26:51;;;;;;;2.47;0.90;;;;;;;-3.28;100.00;100857.28;4807589;29;20035;-77
2022/03/30 03:29:16;;;;;;;3.08;0.98;;;;;;;-3.33;100.00;100852.38;4807995;29;20064;-77
2022/03/30 03:31:42;;;;;;;2.90;1.02;;;;;;;-3.37;100.00;100855.34;4788725;29;20350;-78
2022/03/30 03:34:08;;;;;;;3.13;1.08;;;;;;;-3.48;100.00;100845.53;4808880;29;20023;-77
2022/03/30 03:36:35;;;;;;;3.85;1.00;;;;;;;-3.46;100.00;100856.81;4789814;29;20057;-77
2022/03/30 03:39:00;;;;;;;2.75;1.02;;;;;;;-3.49;100.00;100862.28;4806955;29;20030;-77
2022/03/30 03:41:26;;;;;;;2.30;0.85;;;;;;;-3.52;100.00;100862.50;4805642;29;20103;-77
2022/03/30 03:43:52;;;;;;;3.97;0.90;;;;;;;-3.57;100.00;100868.09;4788934;29;20099;-77
2022/03/30 03:46:17;;;;;;;2.25;0.90;;;;;;;-3.67;100.00;100853.06;4790703;29;20074;-77
2022/03/30 03:48:43;;;;;;;5.25;1.10;;;;;;;-3.60;100.00;100864.84;4805756;29;20105;-77
2022/03/30 03:51:09;;;;;;;4.93;1.00;;;;;;;-3.64;100.00;100863.34;4805587;29;20035;-77
2022/03/30 03:53:35;;;;;;;2.15;1.10;;;;;;;-3.76;100.00;100851.06;4775929;29;20465;-77
2022/03/30 03:56:04;;;;;;;3.00;1.10;;;;;;;-3.71;100.00;100848.94;4804948;29;20030;-77
2022/03/30 03:58:30;;;;;;;3.72;0.95;;;;;;;-3.62;100.00;100871.97;4790676;29;20034;-77
2022/03/30 04:00:56;;;;;;;3.30;1.35;;;;;;;-3.62;100.00;100871.97;4786531;29;20059;-77
2022/03/30 04:03:21;;;;;;;3.33;1.20;;;;;;;-3.71;100.00;100856.81;4806743;29;20083;-77
2022/03/30 04:05:47;;;;;;;4.72;1.10;;;;;;;-3.74;100.00;100862.28;4789744;29;20031;-76
2022/03/30 04:08:12;;;;;;;5.30;1.20;;;;;;;-3.72;100.00;100870.94;4776005;29;20042;-77
2022/03/30 04:10:38;;;;;;;3.17;1.10;;;;;;;-3.73;100.00;100874.50;4805037;29;20042;-77
2022/03/30 04:13:06;;;;;;;5.88;1.25;;;;;;;-3.84;100.00;100872.59;4806662;29;20027;-77
2022/03/30 04:15:37;;;;;;;3.17;1.27;;;;;;;-3.88;100.00;100873.75;4805182;29;20027;-77
2022/03/30 04:18:03;;;;;;;3.33;1.20;;;;;;;-4.05;100.00;100843.38;4769037;30;20047;-77
2022/03/30 04:20:29;;;;;;;3.63;1.30;;;;;;;-3.86;100.00;100877.97;4802029;29;20043;-77
2022/03/30 04:22:54;;;;;;;2.80;1.20;;;;;;;-3.89;100.00;100875.56;4792748;29;20046;-77
2022/03/30 04:25:20;;;;;;;3.45;1.70;;;;;;;-3.91;100.00;100887.13;4774721;29;20113;-77
2022/03/30 04:27:50;;;;;;;6.28;1.85;;;;;;;-3.96;100.00;100886.59;4803157;29;20035;-78
2022/03/30 04:30:17;;;;;;;7.75;1.35;;;;;;;-4.10;100.00;100867.34;4806804;29;20038;-77
2022/03/30 04:32:44;;;;;;;4.88;1.70;;;;;;;-4.16;100.00;100856.41;4791487;29;20506;-77
2022/03/30 04:35:11;;;;;;;3.70;1.42;;;;;;;-4.02;100.00;100886.06;4817887;29;20046;-77
2022/03/30 04:37:38;;;;;;;4.13;1.60;;;;;;;-4.01;100.00;100894.78;4810923;29;20042;-78
2022/03/30 04:40:04;;;;;;;2.45;1.40;;;;;;;-4.17;100.00;100870.47;4791927;29;20508;-78
2022/03/30 04:42:30;;;;;;;3.60;1.45;;;;;;;-4.05;100.00;100896.75;4802612;29;20043;-78
2022/03/30 04:44:55;;;;;;;3.80;1.30;;;;;;;-4.20;100.00;100870.69;4774674;29;20043;-78
2022/03/30 04:47:21;;;;;;;4.40;1.20;;;;;;;-4.19;100.00;100877.63;4787662;29;20101;-77
2022/03/30 04:49:46;;;;;;;3.78;1.25;;;;;;;-4.09;100.00;100900.56;4799438;29;20793;-78
2022/03/30 04:52:11;;;;;;;3.80;1.30;;;;;;;-4.40;100.00;100857.09;4805878;29;20422;-77
2022/03/30 04:54:37;;;;;;;5.75;1.70;;;;;;;-4.23;100.00;100889.28;4788776;29;20093;-78
2022/03/30 04:57:03;;;;;;;6.30;1.50;;;;;;;-4.22;100.00;100890.97;4804322;29;20130;-78
2022/03/30 04:59:28;;;;;;;5.07;1.50;;;;;;;-4.13;100.00;100887.72;4774092;29;20038;-78
2022/03/30 05:01:54;;;;;;;5.05;1.38;;;;;;;-3.31;100.00;100903.09;4802126;29;20051;-78
2022/03/30 05:04:19;;;;;;;4.78;1.77;;;;;;;-2.55;100.00;100905.59;4790943;29;20039;-77
2022/03/30 05:06:45;;;;;;;4.15;1.67;;;;;;;-2.17;100.00;100879.91;4808428;29;20035;-77
2022/03/30 05:09:12;;;;;;;9.25;1.75;;;;;;;-1.64;100.00;100876.78;4795527;29;20556;-76
2022/03/30 05:11:39;;;;;;;5.45;1.50;;;;;;;-1.00;100.00;100908.66;4789532;29;20049;-76
2022/03/30 05:14:05;;;;;;;6.25;1.73;;;;;;;-0.56;100.00;100901.63;4809686;29;20069;-77
2022/03/30 05:16:30;;;;;;;7.93;1.55;;;;;;;-0.27;100.00;100909.78;4810265;29;20059;-77
2022/03/30 05:18:55;;;;;;;8.15;2.05;;;;;;;-0.13;100.00;100913.09;4783966;29;20130;-77
2022/03/30 05:21:21;;;;;;;4.50;1.60;;;;;;;0.17;100.00;100904.44;4794382;29;20035;-77
2022/03/30 05:23:46;;;;;;;4.18;1.63;;;;;;;0.79;100.00;100907.94;4776268;29;20122;-77
2022/03/30 05:26:12;;;;;;;5.47;1.73;;;;;;;1.14;100.00;100915.47;4807771;29;20076;-77
2022/03/30 05:28:38;;;;;;;5.47;1.60;;;;;;;1.21;100.00;100876.84;4789568;29;20500;-76
2022/03/30 05:31:05;;;;;;;4.45;1.70;;;;;;;1.64;100.00;100910.09;4796615;29;20113;-76
2022/03/30 05:33:31;;;;;;;7.43;1.73;;;;;;;-0.02;100.00;100907.78;4804715;29;20042;-77
2022/03/30 05:35:56;;;;;;;6.15;1.90;;;;;;;-1.01;100.00;100895.59;4789223;29;20095;-77
2022/03/30 05:38:22;;;;;;;6.38;1.98;;;;;;;-1.34;100.00;100914.94;4790822;29;20369;-77
2022/03/30 05:40:47;;;;;;;8.35;2.30;;;;;;;-1.64;100.00;100915.50;4804866;29;20031;-77
2022/03/30 05:43:13;;;;;;;8.63;2.40;;;;;;;-1.82;100.00;100920.38;4794172;29;20083;-77
2022/03/30 05:45:38;;;;;;;9.20;2.75;;;;;;;-2.00;100.00;100902.34;4776315;29;20039;-77
2022/03/30 05:48:04;;;;;;;7.22;2.70;;;;;;;-2.03;100.00;100893.84;4806045;29;20117;-77
2022/03/30 05:50:29;;;;;;;10.45;2.45;;;;;;;-1.93;100.00;100921.19;4805967;29;20058;-77
2022/03/30 05:52:55;;;;;;;5.50;2.80;;;;;;;-2.03;100.00;100926.31;4773812;29;20396;-77
2022/03/30 05:55:20;;;;;;;7.65;2.47;;;;;;;-2.04;100.00;100931.72;4794285;29;20034;-77
2022/03/30 05:57:45;;;;;;;8.63;2.00;;;;;;;-2.14;100.00;100936.81;4800855;29;20054;-77
2022/03/30 06:00:11;;;;;;;8.00;2.00;;;;;;;-2.14;100.00;100937.66;4804553;29;20031;-77
2022/03/30 06:02:37;;;;;;;5.60;1.92;;;;;;;-2.30;100.00;100929.22;4802212;29;20059;-77
2022/03/30 06:05:04;;;;;;;9.38;2.13;;;;;;;-2.50;100.00;100906.13;4805441;29;20050;-77
2022/03/30 06:07:29;;;;;;;7.45;2.20;;;;;;;-2.48;100.00;100923.50;4803989;29;20023;-77
2022/03/30 06:09:55;;;;;;;6.63;2.55;;;;;;;-2.11;100.00;100936.59;4785104;29;20080;-77
2022/03/30 06:12:23;;;;;;;10.05;1.95;;;;;;;-2.25;100.00;100905.13;4790703;29;20111;-77
2022/03/30 06:14:48;;;;;;;10.10;2.28;;;;;;;-1.96;100.00;100939.88;4803368;29;20420;-77
2022/03/30 06:17:15;;;;;;;7.80;2.50;;;;;;;-1.85;100.00;100945.22;4805309;29;20054;-77
2022/03/30 06:19:40;;;;;;;6.88;2.08;;;;;;;-1.75;100.00;100942.72;4805783;29;20066;-77
2022/03/30 06:22:10;;;;;;;8.13;2.13;;;;;;;-1.68;100.00;100942.13;4812938;29;20382;-77
2022/03/30 06:24:37;;;;;;;5.85;1.65;;;;;;;-1.74;100.00;100913.56;4815072;29;20051;-76
2022/03/30 06:27:04;;;;;;;5.50;1.60;;;;;;;-1.37;100.00;100945.03;4809152;29;20421;-77
2022/03/30 06:29:30;;;;;;;5.40;1.65;;;;;;;-1.14;100.00;100937.97;4792639;29;20116;-77
2022/03/30 06:31:55;;;;;;;7.85;2.03;;;;;;;-0.85;100.00;100950.69;4790700;29;20050;-77
2022/03/30 06:34:20;;;;;;;7.82;1.50;;;;;;;-1.02;100.00;100950.22;4803440;29;20343;-77
2022/03/30 06:36:46;;;;;;;4.22;1.50;;;;;;;-1.03;100.00;100937.97;4761191;29;20049;-77
2022/03/30 06:39:11;;;;;;;3.33;1.50;;;;;;;-0.97;100.00;100942.75;4789543;29;20517;-77
2022/03/30 06:41:38;;;;;;;5.93;1.40;;;;;;;-0.73;100.00;100960.25;4806262;29;20460;-77
2022/03/30 06:44:04;;;;;;;5.30;1.33;;;;;;;-0.60;100.00;100960.97;4804280;29;20039;-76
2022/03/30 06:46:33;;;;;;;8.02;1.70;;;;;;;-0.47;100.00;100959.00;4822168;29;20031;-76
2022/03/30 06:49:01;;;;;;;10.77;1.65;;;;;;;-0.41;100.00;100946.28;4820117;29;20061;-77
2022/03/30 06:51:26;;;;;;;5.68;1.40;;;;;;;-0.32;100.00;100943.72;4817763;29;20045;-77
2022/03/30 06:53:52;;;;;;;5.60;1.48;;;;;;;-0.33;100.00;100962.34;4807547;29;20035;-77
2022/03/30 06:56:17;;;;;;;5.60;1.63;;;;;;;-0.16;100.00;100961.00;4807409;29;20035;-77
2022/03/30 06:58:43;;;;;;;5.85;1.38;;;;;;;0.09;100.00;100962.44;4790205;29;20355;-77
2022/03/30 07:01:09;;;;;;;11.57;1.70;;;;;;;0.15;100.00;100954.81;4787001;30;20068;-77
2022/03/30 07:03:34;;;;;;;7.55;1.50;;;;;;;0.22;100.00;100965.72;4801020;29;20039;-77
2022/03/30 07:06:05;;;;;;;8.15;1.90;;;;;;;0.33;100.00;100965.69;4758402;30;20114;-77
2022/03/30 07:11:14;;;;;;;7.93;1.77;;;;;;;0.40;100.00;100947.50;4787672;29;20050;-77
2022/03/30 07:13:40;;;;;;;3.30;1.33;;;;;;;0.19;100.00;100952.75;4772950;30;20271;-77
2022/03/30 07:16:05;;;;;;;7.07;1.50;;;;;;;0.23;100.00;100962.09;4786851;29;20031;-77
2022/03/30 07:18:31;;;;;;;4.72;1.35;;;;;;;0.13;100.00;100945.31;4770440;29;20043;-77
2022/03/30 07:20:57;;;;;;;9.73;1.60;;;;;;;0.65;100.00;100973.53;4787690;29;20043;-78
2022/03/30 07:23:23;;;;;;;5.88;1.55;;;;;;;0.61;100.00;100971.28;4757603;30;20062;-77
2022/03/30 07:25:49;;;;;;;3.92;1.45;;;;;;;0.62;100.00;100959.72;4773611;30;20054;-77
2022/03/30 07:28:16;;;;;;;8.35;1.60;;;;;;;0.79;100.00;100975.00;4788831;29;20031;-77
2022/03/30 07:30:48;;;;;;;6.40;1.48;;;;;;;0.90;100.00;100977.59;4785290;29;20664;-77
2022/03/30 07:33:14;;;;;;;5.93;1.30;;;;;;;0.92;100.00;100978.28;4773929;30;20039;-77
2022/03/30 07:35:46;;;;;;;7.53;1.65;;;;;;;0.96;100.00;100981.53;4787150;29;20019;-77
2022/03/30 07:38:15;;;;;;;6.70;1.20;;;;;;;0.32;100.00;100892.53;4791628;29;20104;-77
2022/03/30 07:40:41;;;;;;;4.82;1.30;;;;;;;0.90;100.00;100982.06;4788347;30;20035;-78
2022/03/30 07:43:07;;;;;;;6.45;1.38;;;;;;;1.43;100.00;100989.78;4786815;29;20043;-77
2022/03/30 07:45:33;;;;;;;3.08;1.30;;;;;;;1.23;100.00;100967.69;4794031;29;20378;-77
2022/03/30 07:47:59;;;;;;;6.22;1.40;;;;;;;1.61;100.00;100989.94;4788362;30;20058;-77
2022/03/30 07:50:24;;;;;;;4.72;1.30;;;;;;;1.38;100.00;100989.34;4788368;29;20062;-78
2022/03/30 07:52:50;;;;;;;5.65;1.05;;;;;;;1.49;100.00;100988.38;4789280;30;20429;-77
2022/03/30 07:55:16;;;;;;;3.25;1.05;;;;;;;1.52;100.00;100988.09;4785791;29;20566;-78
2022/03/30 07:57:42;;;;;;;6.13;1.20;;;;;;;1.45;100.00;100992.28;4786203;29;20509;-77
2022/03/30 08:00:12;;;;;;;4.80;1.48;;;;;;;1.46;100.00;101002.78;4770856;30;20039;-77
2022/03/30 08:02:37;;;;;;;4.43;1.00;;;;;;;1.59;100.00;100981.28;4811830;29;21763;-77
2022/03/30 08:05:05;;;;;;;7.63;1.13;;;;;;;1.73;100.00;100996.81;4805336;29;20035;-77
2022/03/30 08:07:30;;;;;;;2.47;0.90;;;;;;;0.94;100.00;100933.94;4814355;29;20485;-77
2022/03/30 08:09:57;;;;;;;1.67;0.70;;;;;;;1.12;99.04;101002.22;4788521;29;20030;-78
2022/03/30 08:12:25;;;;;;;3.75;0.70;;;;;;;1.35;100.00;100994.91;4794049;29;20041;-77
2022/03/30 08:14:51;;;;;;;2.42;0.57;;;;;;;1.51;98.19;100999.69;4787119;29;20035;-76
2022/03/30 08:17:17;;;;;;;1.90;0.50;;;;;;;1.55;93.96;100988.66;4808795;29;20042;-77
2022/03/30 08:19:57;;;;;;;2.35;0.60;;;;;;;1.95;91.14;100994.88;4789171;29;20044;-77
2022/03/30 08:22:26;;;;;;;2.90;0.82;;;;;;;1.86;89.82;100991.25;4814426;29;20079;-78
2022/03/30 08:24:57;;;;;;;3.92;0.63;;;;;;;2.01;66.45;100999.66;4803301;29;20027;-78
2022/03/30 08:27:25;;;;;;;1.42;0.52;;;;;;;2.05;61.29;101001.03;4801227;29;20045;-77
2022/03/30 08:29:53;;;;;;;3.03;0.60;;;;;;;2.23;58.46;101002.03;4805435;29;20027;-77
2022/03/30 08:32:21;;;;;;;3.70;0.80;;;;;;;2.25;53.42;100996.56;4788993;29;20087;-78
2022/03/30 08:34:48;;;;;;;3.47;0.55;;;;;;;2.41;54.04;101003.97;4802758;29;20462;-77
2022/03/30 08:37:13;;;;;;;2.53;0.70;;;;;;;2.48;51.95;100999.75;4788221;29;20086;-77
2022/03/30 08:39:39;;;;;;;6.35;0.90;;;;;;;2.55;50.35;100987.59;4806197;29;20042;-77
2022/03/30 08:42:06;;;;;;;1.52;0.52;;;;;;;2.48;46.89;100997.09;4790029;29;20796;-77
2022/03/30 08:44:33;;;;;;;2.05;0.50;;;;;;;2.74;45.05;100998.19;4816414;29;20035;-78
2022/03/30 08:46:59;;;;;;;0.80;0.40;;;;;;;2.91;45.54;100985.13;4807549;29;20363;-77
2022/03/30 08:49:26;;;;;;;2.15;0.50;;;;;;;3.08;45.82;100997.69;4806708;29;20031;-78
2022/03/30 08:51:54;;;;;;;2.95;0.60;;;;;;;2.73;42.95;100980.56;4792971;29;20079;-78
2022/03/30 08:54:21;;;;;;;2.83;0.88;;;;;;;2.70;40.40;100986.16;4791561;29;20042;-78
2022/03/30 08:56:47;;;;;;;1.83;0.60;;;;;;;2.65;39.05;100987.56;4809496;29;20498;-77
2022/03/30 08:59:19;;;;;;;2.30;0.38;;;;;;;3.03;35.40;100986.63;4792228;29;20034;-78
2022/03/30 09:01:45;;;;;;;3.85;0.28;;;;;;;2.92;37.59;100994.78;4792913;29;20114;-77
2022/03/30 09:04:14;;;;;;;1.80;0.40;;;;;;;3.06;36.97;100992.50;4808129;29;20108;-78
2022/03/30 09:06:48;;;;;;;1.33;0.40;;;;;;;3.22;33.00;100986.56;4808444;29;20058;-78
2022/03/30 09:09:18;;;;;;;0.50;0.20;;;;;;;2.77;29.91;100991.75;4793166;29;20038;-78
2022/03/30 09:11:45;;;;;;;1.90;0.40;;;;;;;2.92;33.15;100987.66;4810122;29;20113;-77
2022/03/30 09:14:12;;;;;;;2.55;0.47;;;;;;;3.08;34.08;100984.38;4807003;29;20078;-77
2022/03/30 09:16:39;;;;;;;0.30;0.10;;;;;;;3.16;30.54;100992.47;4792992;29;20034;-78
2022/03/30 09:19:07;;;;;;;0.40;0.20;;;;;;;3.14;30.65;100989.09;4808702;29;20042;-78
2022/03/30 09:21:59;;;;;;;1.38;0.10;;;;;;;3.05;28.20;100992.66;4809186;29;20034;-78
2022/03/30 09:24:31;;;;;;;1.10;0.17;;;;;;;3.25;30.95;100986.25;4805707;29;20514;-77
2022/03/30 09:26:57;;;;;;;0.30;0.17;;;;;;;3.28;30.84;100999.28;4808650;29;20038;-77
2022/03/30 09:29:26;;;;;;;1.88;0.30;;;;;;;3.09;30.12;100991.38;4792467;29;20035;-77
2022/03/30 09:31:52;;;;;;;3.22;0.35;;;;;;;3.04;31.57;100989.13;4808728;29;20031;-78
2022/03/30 09:34:19;;;;;;;0.57;0.20;;;;;;;3.24;32.18;100971.28;4791906;29;20125;-78
2022/03/30 09:36:49;;;;;;;0.50;0.30;;;;;;;3.12;32.28;100964.50;4808151;29;20038;-78
2022/03/30 09:39:35;;;;;;;1.35;0.20;;;;;;;3.11;30.55;100985.88;4804704;29;20121;-77
2022/03/30 09:42:02;;;;;;;1.98;0.17;;;;;;;3.23;31.36;100988.22;4810334;29;20042;-77
2022/03/30 09:44:29;;;;;;;1.67;0.20;;;;;;;3.39;32.24;100986.75;4811454;29;20046;-78
2022/03/30 09:47:08;;;;;;;0.60;0.20;;;;;;;3.55;31.60;100986.97;4808294;29;20113;-77
2022/03/30 09:49:44;;;;;;;0.77;0.20;;;;;;;3.52;31.66;100989.91;4806236;29;20045;-77
2022/03/30 09:52:22;;;;;;;4.28;0.20;;;;;;;3.46;31.51;100994.00;4808402;29;20045;-78
2022/03/30 09:54:58;;;;;;;0.75;0.20;;;;;;;3.59;31.03;100975.03;4792469;29;20454;-77
2022/03/30 09:57:50;;;;;;;0.47;0.13;;;;;;;4.06;33.96;100974.81;4808690;29;20043;-78
2022/03/30 10:00:19;;;;;;;0.73;0.22;;;;;;;3.99;31.85;100966.59;4792637;29;20465;-77
2022/03/30 10:02:50;;;;;;;1.23;0.20;;;;;;;3.96;33.63;100988.22;4793051;29;20483;-78
2022/03/30 10:05:18;;;;;;;8.00;0.50;;;;;;;3.92;33.61;100988.66;4803866;29;20092;-78
2022/03/30 10:07:45;;;;;;;0.45;0.30;;;;;;;3.77;32.92;100993.66;4779893;29;20421;-78
2022/03/30 10:10:13;;;;;;;1.23;0.30;;;;;;;3.51;30.72;100978.44;4795180;29;20063;-78
2022/03/30 10:12:39;;;;;;;0.77;0.20;;;;;;;3.49;31.77;100975.06;4808093;29;20176;-78
2022/03/30 10:15:09;;;;;;;0.20;0.20;;;;;;;3.70;30.90;100987.28;4791284;29;20110;-77
2022/03/30 10:17:36;;;;;;;1.85;0.65;;;;;;;3.40;29.90;101005.22;4808523;29;20042;-77
2022/03/30 10:20:03;;;;;;;0.40;0.20;;;;;;;3.49;29.59;100982.22;4793665;29;20086;-77
2022/03/30 10:22:44;;;;;;;0.50;0.20;;;;;;;3.46;28.79;100983.34;4799039;29;20042;-78
2022/03/30 10:25:31;;;;;;;0.30;0.20;;;;;;;3.25;27.78;100988.94;4819415;29;20071;-78
2022/03/30 10:28:08;;;;;;;0.45;0.20;;;;;;;2.99;29.15;100919.63;4805895;29;20038;-78
2022/03/30 10:30:35;;;;;;;0.45;0.10;;;;;;;3.27;29.77;100973.63;4806950;29;20042;-78
2022/03/30 10:33:03;;;;;;;0.45;0.20;;;;;;;3.32;30.02;100967.91;4794663;29;20126;-78
2022/03/30 10:35:42;;;;;;;1.40;0.20;;;;;;;3.50;30.30;100983.88;4817969;29;20030;-77
2022/03/30 10:38:09;;;;;;;1.13;0.20;;;;;;;3.51;30.17;100961.63;4797861;29;20037;-80
2022/03/30 10:40:35;;;;;;;0.35;0.13;;;;;;;3.67;31.05;100964.44;4795099;29;20038;-79
2022/03/30 10:43:09;;;;;;;2.38;0.30;;;;;;;3.78;31.15;100959.94;4824992;29;20030;-79
2022/03/30 10:46:02;;;;;;;0.52;0.20;;;;;;;3.74;31.92;100965.53;4824603;29;20038;-78
2022/03/30 10:48:30;;;;;;;2.55;0.20;;;;;;;3.92;30.55;100967.38;4803002;29;20027;-79
2022/03/30 10:50:57;;;;;;;0.98;0.32;;;;;;;4.05;29.71;100962.50;4807020;29;20027;-79
2022/03/30 10:53:34;;;;;;;0.80;0.30;;;;;;;3.93;28.95;100963.72;4805205;29;20688;-79
2022/03/30 10:56:09;;;;;;;0.47;0.20;;;;;;;4.12;29.22;100963.56;4806565;29;20090;-79
2022/03/30 10:58:50;;;;;;;0.32;0.20;;;;;;;3.78;27.98;100970.56;4818544;29;20053;-80
2022/03/30 11:01:25;;;;;;;0.35;0.30;;;;;;;3.74;30.18;100922.09;4806369;29;20054;-79
2022/03/30 11:04:02;;;;;;;3.85;0.30;;;;;;;4.19;30.09;100953.13;4806315;29;20450;-78
2022/03/30 11:06:36;;;;;;;0.30;0.20;;;;;;;4.21;29.70;100949.34;4804286;29;20035;-79
2022/03/30 11:09:11;;;;;;;0.35;0.20;;;;;;;4.05;28.68;100933.22;4816569;29;20057;-79
2022/03/30 11:11:42;;;;;;;0.70;0.30;;;;;;;4.32;29.02;100956.22;4808518;29;20042;-79
2022/03/30 11:14:39;;;;;;;1.55;0.20;;;;;;;4.44;30.03;100946.19;4818880;29;20122;-79
2022/03/30 11:17:29;;;;;;;0.63;0.20;;;;;;;4.26;27.49;100950.69;4773230;30;20046;-80
2022/03/30 11:19:55;;;;;;;0.73;0.22;;;;;;;4.20;29.47;100950.31;4793017;29;20031;-80
2022/03/30 11:22:32;;;;;;;0.65;0.20;;;;;;;4.31;27.84;100945.75;4825541;29;20442;-79
2022/03/30 11:25:20;;;;;;;0.73;0.20;;;;;;;4.37;28.42;100937.09;4820025;29;20031;-80
2022/03/30 11:27:58;;;;;;;0.55;0.20;;;;;;;4.01;26.05;100945.16;4809173;29;20030;-80
2022/03/30 11:30:38;;;;;;;1.02;0.13;;;;;;;4.04;25.66;100939.53;4805421;29;20035;-79
2022/03/30 11:33:36;;;;;;;0.68;0.20;;;;;;;4.33;26.41;100954.41;4811223;29;20114;-78
2022/03/30 11:36:04;;;;;;;0.30;0.20;;;;;;;4.35;28.02;100947.09;4804310;29;20042;-78